Time;durP1;ratioP1;P1;durP2;ratioP2;P2;SDS_P1;SDS_P2;PMS_P1;PMS_P2;Temp;Humidity;BMP_temperature;BMP_pressure;BME280_temperature;BME280_humidity;BME280_pressure;Samples;Min_cycle;Max_cycle;Signal;HPM_P1;HPM_P2
2023/03/15 07:14:24;;;;;;;7.93;2.20;;;;;;;2.07;73.27;96584.81;2106409;27;20552;-66
2023/03/15 07:15:27;;;;;;;12.05;2.83;;;;;;;2.02;72.84;96574.56;2103269;28;20232;-65
2023/03/15 07:16:28;;;;;;;13.65;2.10;;;;;;;2.25;72.55;96587.16;2103488;28;20191;-65
2023/03/15 07:17:30;;;;;;;10.23;1.63;;;;;;;2.16;72.65;96589.88;2103984;28;20199;-66
2023/03/15 07:18:33;;;;;;;8.05;2.03;;;;;;;2.10;72.82;96580.47;2097210;28;20247;-66
2023/03/15 07:19:34;;;;;;;11.05;1.90;;;;;;;2.14;71.56;96562.41;2091141;28;20663;-65
2023/03/15 07:20:47;;;;;;;7.53;2.00;;;;;;;2.18;71.76;96582.94;2092587;28;20809;-65
2023/03/15 07:21:48;;;;;;;8.95;2.40;;;;;;;2.20;71.78;96590.69;2090154;28;20188;-65
2023/03/15 07:22:49;;;;;;;8.80;1.58;;;;;;;2.34;71.70;96595.66;2090518;28;20200;-65
2023/03/15 07:23:51;;;;;;;27.48;2.70;;;;;;;2.45;71.41;96602.38;2090205;28;20212;-65
2023/03/15 07:24:52;;;;;;;7.60;3.97;;;;;;;2.45;71.56;96602.38;2090790;28;20942;-64
2023/03/15 07:25:54;;;;;;;6.25;1.63;;;;;;;2.41;71.26;96600.72;2090088;28;20508;-65
2023/03/15 07:26:56;;;;;;;7.72;1.92;;;;;;;2.48;70.91;96603.22;2083757;28;20200;-65
2023/03/15 07:27:57;;;;;;;8.70;1.90;;;;;;;2.54;70.75;96600.53;2083792;28;20235;-64
2023/03/15 07:28:59;;;;;;;8.15;1.80;;;;;;;2.54;70.62;96597.97;2089273;28;20255;-64
2023/03/15 07:30:01;;;;;;;15.15;2.00;;;;;;;2.62;70.12;96601.28;2089279;28;20283;-65
2023/03/15 07:31:04;;;;;;;7.78;1.85;;;;;;;2.68;69.98;96606.38;2092833;28;20196;-64
2023/03/15 07:32:06;;;;;;;6.40;1.50;;;;;;;2.98;69.57;96613.69;2091312;28;20278;-64
2023/03/15 07:33:07;;;;;;;11.50;1.77;;;;;;;2.90;69.11;96588.84;2090378;28;20306;-64
2023/03/15 07:34:09;;;;;;;8.23;1.73;;;;;;;2.89;68.45;96617.25;2089707;28;20216;-64
2023/03/15 07:35:11;;;;;;;8.00;2.03;;;;;;;2.87;69.61;96611.25;2090120;28;20265;-64
2023/03/15 07:36:14;;;;;;;6.45;1.73;;;;;;;2.80;69.42;96614.81;2091066;28;20278;-64
2023/03/15 07:37:16;;;;;;;11.10;2.30;;;;;;;3.17;68.63;96609.09;2090124;28;20239;-64
2023/03/15 07:38:18;;;;;;;9.00;1.08;;;;;;;3.31;67.50;96614.03;2087862;28;20207;-64
2023/03/15 07:39:20;;;;;;;8.10;1.70;;;;;;;3.03;67.68;96604.97;2090238;28;20196;-64
2023/03/15 07:40:22;;;;;;;10.13;2.20;;;;;;;3.06;67.63;96609.25;2090518;28;20236;-64
2023/03/15 07:41:23;;;;;;;10.75;2.30;;;;;;;3.00;68.14;96601.63;2091563;28;20235;-65
2023/03/15 07:42:25;;;;;;;5.13;1.58;;;;;;;3.50;67.85;96612.00;2091381;28;20805;-64
2023/03/15 07:43:28;;;;;;;8.32;1.70;;;;;;;3.85;67.36;96607.94;2090126;28;20306;-64
2023/03/15 07:44:29;;;;;;;11.60;2.15;;;;;;;4.03;66.40;96617.91;2090320;28;20544;-64
2023/03/15 07:45:32;;;;;;;6.03;1.85;;;;;;;3.98;65.56;96605.97;2089277;28;20193;-64
2023/03/15 07:46:34;;;;;;;9.00;2.25;;;;;;;3.85;66.25;96608.78;2090753;28;20232;-64
2023/03/15 07:47:36;;;;;;;10.27;1.83;;;;;;;3.88;65.41;96603.53;2089182;28;20192;-64
2023/03/15 07:48:37;;;;;;;12.68;1.45;;;;;;;3.73;66.04;96620.19;2082567;28;20229;-64
2023/03/15 07:49:39;;;;;;;5.85;1.73;;;;;;;3.56;66.09;96597.22;2083053;28;20208;-64
2023/03/15 07:50:40;;;;;;;8.80;2.05;;;;;;;4.08;66.53;96597.16;2089135;28;20227;-64
2023/03/15 07:51:42;;;;;;;7.28;1.50;;;;;;;4.20;65.03;96615.00;2090543;28;20223;-64
2023/03/15 07:52:43;;;;;;;10.20;2.03;;;;;;;4.08;64.53;96605.75;2085089;28;20189;-64
2023/03/15 07:53:45;;;;;;;8.65;1.63;;;;;;;4.05;65.64;96613.56;2085900;28;20235;-64
2023/03/15 07:54:46;;;;;;;6.05;1.77;;;;;;;4.29;65.28;96606.22;2091097;28;20203;-64
2023/03/15 07:55:48;;;;;;;9.68;2.40;;;;;;;4.53;64.23;96616.91;2090252;28;20690;-64
2023/03/15 07:56:49;;;;;;;3.30;1.42;;;;;;;4.69;63.03;96628.63;2089232;28;20288;-64
2023/03/15 07:57:51;;;;;;;9.68;1.70;;;;;;;4.54;62.94;96614.28;2091750;28;20196;-64
2023/03/15 07:58:53;;;;;;;8.25;1.88;;;;;;;4.21;63.15;96615.84;2088170;28;20220;-64
2023/03/15 07:59:55;;;;;;;11.43;2.28;;;;;;;4.31;63.20;96624.28;2090425;28;20188;-64
2023/03/15 08:00:57;;;;;;;5.18;1.50;;;;;;;4.49;64.11;96621.31;2089938;28;20197;-64
2023/03/15 08:01:58;;;;;;;8.18;1.65;;;;;;;4.61;63.11;96619.34;2082209;28;20201;-64
2023/03/15 08:03:04;;;;;;;13.00;2.10;;;;;;;4.76;62.66;96621.59;2085475;28;20341;-64
2023/03/15 08:04:05;;;;;;;8.15;1.63;;;;;;;4.37;63.37;96625.00;2080370;28;20279;-64
2023/03/15 08:05:08;;;;;;;6.55;1.42;;;;;;;4.47;62.30;96604.97;2082860;28;20196;-64
2023/03/15 08:06:12;;;;;;;10.88;1.40;;;;;;;4.66;61.46;96614.91;2081566;28;20205;-64
2023/03/15 08:07:14;;;;;;;6.93;2.05;;;;;;;4.78;61.22;96622.41;2081998;28;20215;-64
2023/03/15 08:08:15;;;;;;;5.78;1.80;;;;;;;5.03;61.89;96620.13;2082935;28;20217;-64
2023/03/15 08:09:17;;;;;;;20.25;2.97;;;;;;;5.25;61.38;96622.22;2083001;28;20189;-64
2023/03/15 08:10:18;;;;;;;4.95;1.60;;;;;;;5.40;60.55;96627.03;2075918;28;20196;-64
2023/03/15 08:11:19;;;;;;;10.60;1.70;;;;;;;5.51;59.80;96620.72;2074215;28;20250;-64
2023/03/15 08:12:21;;;;;;;4.57;1.85;;;;;;;5.35;59.73;96615.91;2083211;28;20233;-64
2023/03/15 08:13:23;;;;;;;4.45;1.52;;;;;;;5.60;60.23;96604.97;2080351;28;20289;-64
2023/03/15 08:14:24;;;;;;;7.82;1.38;;;;;;;5.66;58.57;96617.75;2077019;28;20299;-64
2023/03/15 08:15:26;;;;;;;8.57;2.00;;;;;;;5.29;60.55;96623.00;2078217;28;21051;-64
2023/03/15 08:16:27;;;;;;;6.53;1.50;;;;;;;5.02;61.14;96625.34;2080573;28;20201;-64
2023/03/15 08:17:29;;;;;;;15.63;2.40;;;;;;;4.72;62.11;96617.38;2080334;28;20233;-64
2023/03/15 08:18:30;;;;;;;5.85;1.33;;;;;;;4.78;62.36;96613.81;2079669;28;20252;-64
2023/03/15 08:19:32;;;;;;;15.45;2.10;;;;;;;4.86;61.48;96619.66;2081671;28;20292;-64
2023/03/15 08:20:33;;;;;;;5.10;1.30;;;;;;;4.74;61.34;96629.38;2082050;28;20196;-63
2023/03/15 08:21:34;;;;;;;8.60;1.95;;;;;;;4.87;61.56;96626.53;2081213;28;20776;-64
2023/03/15 08:22:37;;;;;;;8.45;2.05;;;;;;;4.90;62.00;96616.09;2082159;28;20197;-64
2023/03/15 08:23:39;;;;;;;10.13;1.85;;;;;;;4.79;62.82;96620.69;2083024;28;20224;-63
2023/03/15 08:24:40;;;;;;;5.90;2.17;;;;;;;4.77;62.17;96620.72;2080973;28;20205;-64
2023/03/15 08:25:43;;;;;;;7.40;1.60;;;;;;;4.32;61.58;96593.22;2075673;28;20256;-63
2023/03/15 08:26:44;;;;;;;6.53;2.13;;;;;;;4.30;61.07;96631.16;2074771;28;20219;-63
2023/03/15 08:27:46;;;;;;;8.35;1.55;;;;;;;4.53;61.25;96616.91;2074998;28;20239;-63
2023/03/15 08:28:48;;;;;;;3.38;1.80;;;;;;;4.53;61.55;96625.53;2071445;28;20304;-63
2023/03/15 08:29:50;;;;;;;8.60;1.65;;;;;;;5.03;60.20;96630.47;2072071;28;20233;-64
2023/03/15 08:30:53;;;;;;;10.85;1.65;;;;;;;4.93;60.38;96613.47;2077427;28;20205;-64
2023/03/15 08:31:55;;;;;;;9.45;1.75;;;;;;;5.40;60.02;96631.34;2074765;28;20240;-64
2023/03/15 08:32:57;;;;;;;9.85;1.75;;;;;;;5.40;58.99;96624.44;2068258;28;20225;-63
2023/03/15 08:33:59;;;;;;;5.68;1.52;;;;;;;4.89;59.44;96629.97;2070399;28;20981;-64
2023/03/15 08:35:00;;;;;;;6.82;1.60;;;;;;;4.43;61.16;96624.00;2068970;28;20233;-64
2023/03/15 08:36:01;;;;;;;8.75;1.50;;;;;;;3.81;62.82;96626.94;2070080;28;20206;-64
2023/03/15 08:37:03;;;;;;;12.98;1.60;;;;;;;3.37;63.84;96632.00;2076007;28;20208;-64
2023/03/15 08:38:05;;;;;;;5.10;1.48;;;;;;;3.28;64.69;96627.84;2077947;28;20307;-63
2023/03/15 08:39:07;;;;;;;8.75;1.73;;;;;;;3.17;65.40;96622.00;2074981;28;20226;-63
2023/03/15 08:40:09;;;;;;;8.98;2.30;;;;;;;3.35;66.33;96634.63;2076947;28;20201;-63
2023/03/15 08:41:10;;;;;;;5.60;1.42;;;;;;;3.43;66.06;96635.31;2078675;28;20232;-63
2023/03/15 08:42:12;;;;;;;6.40;1.50;;;;;;;3.21;65.02;96645.16;2076009;28;20209;-63
2023/03/15 08:43:13;;;;;;;7.22;1.40;;;;;;;3.24;65.33;96619.28;2075668;28;20224;-64
2023/03/15 08:44:15;;;;;;;4.47;1.20;;;;;;;3.62;65.05;96635.03;2076230;28;20237;-63
2023/03/15 08:45:16;;;;;;;12.75;1.77;;;;;;;3.67;64.74;96637.50;2076330;28;20779;-63
2023/03/15 08:46:20;;;;;;;6.35;1.55;;;;;;;3.61;65.24;96638.47;2075275;28;20208;-63
2023/03/15 08:47:22;;;;;;;11.70;1.90;;;;;;;3.80;65.42;96646.75;2075776;28;20244;-64
2023/03/15 08:48:23;;;;;;;6.38;1.63;;;;;;;3.51;65.09;96642.94;2075022;28;20205;-63
2023/03/15 08:49:25;;;;;;;8.15;1.52;;;;;;;3.48;66.03;96635.25;2076682;28;20193;-63
2023/03/15 08:50:27;;;;;;;8.85;1.60;;;;;;;3.49;65.90;96639.56;2077899;28;20224;-63
2023/03/15 08:51:29;;;;;;;7.93;1.40;;;;;;;3.42;66.64;96635.34;2075482;28;20307;-64
2023/03/15 08:52:31;;;;;;;7.53;1.92;;;;;;;3.28;66.56;96643.31;2075580;28;20228;-63
2023/03/15 08:53:33;;;;;;;11.57;2.28;;;;;;;3.21;66.91;96639.13;2073883;28;20565;-63
2023/03/15 08:54:35;;;;;;;3.92;1.33;;;;;;;3.17;67.70;96650.38;2074926;28;20209;-63
2023/03/15 08:55:37;;;;;;;10.50;1.70;;;;;;;3.09;68.48;96647.91;2065730;28;20198;-63
2023/03/15 08:56:40;;;;;;;5.88;1.50;;;;;;;2.93;67.27;96635.25;2065422;28;20233;-63
2023/03/15 08:57:42;;;;;;;13.68;1.70;;;;;;;2.73;68.74;96644.97;2076645;28;20194;-63
2023/03/15 08:58:44;;;;;;;11.77;2.85;;;;;;;2.71;69.07;96644.16;2075615;28;20228;-63
2023/03/15 08:59:45;;;;;;;7.03;1.80;;;;;;;2.55;68.91;96644.38;2066071;28;20194;-63
2023/03/15 09:00:48;;;;;;;9.75;2.28;;;;;;;2.59;68.94;96648.59;2066977;28;20202;-63
2023/03/15 09:01:49;;;;;;;7.10;1.60;;;;;;;2.47;68.96;96643.59;2074733;28;20209;-63
2023/03/15 09:02:51;;;;;;;14.57;1.70;;;;;;;2.72;69.34;96638.97;2075210;28;20241;-63
2023/03/15 09:03:52;;;;;;;8.13;1.65;;;;;;;2.83;68.59;96651.72;2073144;28;20225;-64
2023/03/15 09:04:54;;;;;;;12.10;1.70;;;;;;;3.13;68.10;96653.88;2075985;28;20202;-64
2023/03/15 09:05:56;;;;;;;9.02;1.63;;;;;;;3.44;67.63;96649.06;2073278;28;20227;-64
2023/03/15 09:06:58;;;;;;;5.20;1.58;;;;;;;3.74;66.77;96654.63;2067694;28;20837;-64
2023/03/15 09:08:00;;;;;;;6.50;1.17;;;;;;;3.84;65.99;96642.41;2069722;28;20237;-64
2023/03/15 09:09:02;;;;;;;7.15;1.35;;;;;;;4.41;64.25;96654.25;2073754;28;20271;-64
2023/03/15 09:10:04;;;;;;;4.40;1.33;;;;;;;4.83;62.55;96645.63;2077609;28;20214;-64
2023/03/15 09:11:06;;;;;;;4.57;1.15;;;;;;;5.41;61.58;96651.19;2075524;28;20236;-64
2023/03/15 09:12:08;;;;;;;8.07;1.63;;;;;;;5.85;59.99;96662.19;2075832;28;20681;-64
2023/03/15 09:13:10;;;;;;;9.35;1.85;;;;;;;6.27;59.33;96645.59;2075647;28;20205;-63
2023/03/15 09:14:11;;;;;;;4.28;1.20;;;;;;;6.25;58.58;96656.84;2075448;28;20240;-64
2023/03/15 09:15:13;;;;;;;5.53;1.55;;;;;;;6.15;58.87;96664.06;2075569;28;20214;-64
2023/03/15 09:16:15;;;;;;;7.13;1.77;;;;;;;6.48;58.33;96664.03;2076608;28;20200;-64
2023/03/15 09:17:16;;;;;;;7.38;1.20;;;;;;;6.99;58.24;96665.97;2075503;28;20594;-64
2023/03/15 09:18:18;;;;;;;11.65;1.70;;;;;;;7.44;56.91;96662.03;2075179;28;20197;-64
2023/03/15 09:19:20;;;;;;;8.48;1.42;;;;;;;7.66;55.95;96669.13;2074848;28;20203;-64
2023/03/15 09:20:26;;;;;;;4.13;1.23;;;;;;;7.18;55.36;96661.06;2075182;28;20225;-64
2023/03/15 09:21:28;;;;;;;10.95;2.38;;;;;;;7.10;56.87;96662.25;2077637;28;20201;-64
2023/03/15 09:22:30;;;;;;;9.52;1.30;;;;;;;6.56;56.42;96662.06;2075092;28;20284;-64
2023/03/15 09:23:39;;;;;;;8.18;1.63;;;;;;;6.83;56.58;96667.34;2070740;28;20756;-64
2023/03/15 09:24:41;;;;;;;9.00;1.38;;;;;;;7.14;54.68;96667.28;2071916;28;20198;-64
2023/03/15 09:25:42;;;;;;;9.85;1.55;;;;;;;6.72;55.94;96662.47;2077157;28;20211;-64
2023/03/15 09:26:44;;;;;;;7.10;1.52;;;;;;;7.04;55.77;96658.06;2075960;28;20205;-64
2023/03/15 09:27:46;;;;;;;5.43;1.35;;;;;;;7.49;55.52;96673.13;2075274;28;20193;-64
2023/03/15 09:28:47;;;;;;;6.43;1.50;;;;;;;7.42;54.93;96663.81;2073706;28;20555;-64
2023/03/15 09:29:48;;;;;;;10.38;1.35;;;;;;;7.98;55.53;96669.81;2077059;28;20201;-64
2023/03/15 09:30:50;;;;;;;10.68;1.40;;;;;;;7.91;52.75;96657.91;2076599;28;20709;-64
2023/03/15 09:31:52;;;;;;;8.30;2.00;;;;;;;8.09;53.28;96672.06;2073922;28;20708;-64
2023/03/15 09:32:53;;;;;;;8.63;2.03;;;;;;;8.94;52.62;96667.28;2075766;28;20653;-64
2023/03/15 09:33:55;;;;;;;4.57;1.42;;;;;;;8.51;50.53;96635.03;2068003;28;20227;-64
2023/03/15 09:34:56;;;;;;;12.57;1.30;;;;;;;8.61;51.20;96670.22;2068043;28;20198;-64
2023/03/15 09:35:58;;;;;;;10.02;1.42;;;;;;;8.11;51.06;96681.50;2076587;28;20543;-64
2023/03/15 09:37:00;;;;;;;7.25;1.55;;;;;;;8.50;50.29;96673.19;2073932;28;20884;-64
2023/03/15 09:38:02;;;;;;;6.25;1.08;;;;;;;8.62;49.02;96653.72;2073829;28;20209;-64
2023/03/15 09:39:04;;;;;;;11.10;1.38;;;;;;;9.15;49.67;96675.19;2075202;28;20244;-64
2023/03/15 09:40:12;;;;;;;9.00;1.80;;;;;;;8.25;50.62;96665.41;2068094;28;20197;-64
2023/03/15 09:41:26;;;;;;;6.90;2.28;;;;;;;9.37;49.90;96656.97;2067044;28;20880;-64
2023/03/15 09:42:47;;;;;;;5.65;1.30;;;;;;;9.09;49.84;96668.47;2075083;28;20221;-64
2023/03/15 09:44:08;;;;;;;5.45;1.48;;;;;;;8.98;48.90;96671.47;2075522;28;20251;-64
2023/03/15 09:45:39;;;;;;;4.05;1.50;;;;;;;8.05;50.44;96663.50;2075187;28;20208;-64
2023/03/15 09:47:15;;;;;;;6.65;1.70;;;;;;;7.79;50.51;96666.97;2077215;28;20715;-64
2023/03/15 09:48:24;;;;;;;5.50;1.20;;;;;;;6.99;53.49;96657.34;2074847;28;20204;-64
2023/03/15 09:49:32;;;;;;;4.53;1.40;;;;;;;6.82;53.49;96666.50;2074837;28;20201;-64
2023/03/15 09:50:38;;;;;;;3.65;0.90;;;;;;;7.13;52.27;96639.59;2076154;28;20221;-64
2023/03/15 09:51:53;;;;;;;7.60;1.70;;;;;;;7.75;51.78;96674.00;2076921;28;20203;-64
2023/03/15 09:53:01;;;;;;;9.50;1.85;;;;;;;8.29;49.82;96666.13;2069360;28;20205;-64
2023/03/15 09:54:08;;;;;;;8.43;2.08;;;;;;;8.80;48.44;96669.56;2069119;28;20221;-64
2023/03/15 09:55:20;;;;;;;5.35;1.85;;;;;;;8.76;49.64;96668.81;2075247;28;20200;-64
2023/03/15 09:56:25;;;;;;;13.38;1.35;;;;;;;7.98;50.73;96677.59;2076331;28;20201;-64
2023/03/15 09:57:42;;;;;;;3.03;0.98;;;;;;;7.99;50.34;96674.94;2066909;28;20689;-64
2023/03/15 09:58:43;;;;;;;5.82;1.40;;;;;;;8.36;49.27;96675.44;2070209;28;20229;-64
2023/03/15 09:59:48;;;;;;;5.90;1.20;;;;;;;8.31;49.75;96679.94;2073805;28;20193;-64
2023/03/15 10:00:57;;;;;;;4.82;1.15;;;;;;;7.65;50.62;96676.06;2074847;28;20255;-64
2023/03/15 10:02:03;;;;;;;15.55;1.20;;;;;;;7.67;49.00;96679.47;2075279;28;20431;-64
2023/03/15 10:03:08;;;;;;;2.83;1.02;;;;;;;8.62;46.87;96673.66;2075925;28;20232;-63
2023/03/15 10:04:36;;;;;;;3.55;1.00;;;;;;;9.06;46.61;96671.16;2074593;28;20246;-63
2023/03/15 10:05:40;;;;;;;11.88;1.33;;;;;;;8.71;47.02;96682.91;2075237;28;20695;-63
2023/03/15 10:06:46;;;;;;;3.60;1.05;;;;;;;9.04;46.31;96670.41;2075924;28;20668;-63
2023/03/15 10:07:48;;;;;;;5.60;1.20;;;;;;;8.89;47.72;96669.22;2076300;28;20634;-63
2023/03/15 10:08:54;;;;;;;6.65;1.30;;;;;;;8.54;47.54;96667.91;2073464;28;20221;-63
2023/03/15 10:09:57;;;;;;;5.47;1.00;;;;;;;8.29;47.01;96669.59;2074119;28;20212;-63
2023/03/15 10:11:18;;;;;;;5.00;1.30;;;;;;;7.86;48.67;96673.69;2075062;28;20533;-64
2023/03/15 10:12:28;;;;;;;9.43;1.67;;;;;;;7.45;48.63;96662.88;2075007;28;20256;-64
2023/03/15 10:13:52;;;;;;;7.18;1.30;;;;;;;7.31;47.71;96652.91;2075357;28;20221;-64
2023/03/15 10:15:12;;;;;;;4.40;1.00;;;;;;;7.71;48.15;96674.16;2075057;28;20193;-64
2023/03/15 10:16:39;;;;;;;10.02;1.20;;;;;;;7.89;47.57;96681.34;2076103;28;20201;-64
2023/03/15 10:17:58;;;;;;;4.82;0.98;;;;;;;7.87;47.83;96658.91;2075143;28;20204;-64
2023/03/15 10:19:24;;;;;;;6.95;0.90;;;;;;;7.57;46.92;96662.47;2074751;28;20228;-64
2023/03/15 10:20:33;;;;;;;2.83;1.10;;;;;;;7.84;46.71;96670.28;2077230;28;20197;-64
2023/03/15 10:21:48;;;;;;;13.75;1.95;;;;;;;7.54;47.93;96672.97;2076239;28;20218;-63
2023/03/15 10:23:08;;;;;;;3.65;1.00;;;;;;;7.41;48.16;96669.91;2071303;28;20212;-64
2023/03/15 10:24:29;;;;;;;3.28;0.98;;;;;;;7.05;48.72;96664.97;2088478;28;20270;-64
2023/03/15 10:25:32;;;;;;;5.57;1.17;;;;;;;7.06;49.33;96677.06;2088145;28;20238;-63
2023/03/15 10:26:38;;;;;;;5.53;1.20;;;;;;;7.07;48.73;96678.72;2088005;28;20197;-63
2023/03/15 10:27:48;;;;;;;3.25;1.00;;;;;;;6.70;47.62;96670.31;2091902;28;20225;-63
2023/03/15 10:28:52;;;;;;;2.60;0.90;;;;;;;6.93;47.47;96665.31;2092327;28;20232;-63
2023/03/15 10:29:56;;;;;;;8.20;1.55;;;;;;;6.92;47.95;96671.41;2090705;28;20568;-63
2023/03/15 10:31:06;;;;;;;5.15;1.10;;;;;;;6.84;49.43;96663.84;2083163;28;20239;-63
2023/03/15 10:32:16;;;;;;;3.55;0.85;;;;;;;6.91;48.54;96667.97;2087508;28;20734;-64
2023/03/15 10:33:33;;;;;;;4.18;1.10;;;;;;;6.68;50.51;96669.50;2089693;28;20294;-63
2023/03/15 10:34:34;;;;;;;6.10;1.15;;;;;;;7.06;50.98;96671.00;2090853;28;20619;-64
2023/03/15 10:35:37;;;;;;;8.60;1.58;;;;;;;6.97;50.38;96665.19;2090685;28;20253;-64
2023/03/15 10:36:44;;;;;;;5.43;1.20;;;;;;;6.92;50.08;96674.00;2092518;28;20720;-63
2023/03/15 10:37:46;;;;;;;10.15;1.25;;;;;;;7.07;51.00;96670.94;2090838;28;20307;-64
2023/03/15 10:38:49;;;;;;;6.65;1.38;;;;;;;6.80;49.64;96670.03;2091283;28;20694;-63
2023/03/15 10:39:58;;;;;;;4.22;1.23;;;;;;;6.65;50.56;96679.97;2090557;28;20814;-63
2023/03/15 10:40:59;;;;;;;5.70;1.10;;;;;;;6.87;50.76;96679.34;2092155;28;20198;-63
2023/03/15 10:42:02;;;;;;;4.60;0.93;;;;;;;6.29;48.75;96674.06;2090739;28;20266;-62
2023/03/15 10:43:19;;;;;;;4.88;1.08;;;;;;;5.96;49.98;96682.63;2092136;28;20240;-63
2023/03/15 10:44:25;;;;;;;4.53;0.90;;;;;;;5.74;50.76;96677.16;2090121;28;20243;-62
2023/03/15 10:45:27;;;;;;;3.75;1.10;;;;;;;5.78;51.71;96683.97;2091578;28;20284;-63
2023/03/15 10:46:28;;;;;;;3.63;1.10;;;;;;;5.93;52.67;96676.69;2090612;28;20196;-63
2023/03/15 10:47:29;;;;;;;8.38;1.02;;;;;;;6.04;52.05;96679.88;2090778;28;20216;-63
2023/03/15 10:48:40;;;;;;;3.80;0.85;;;;;;;5.89;52.09;96675.91;2090201;28;20254;-63
2023/03/15 10:49:43;;;;;;;5.05;1.95;;;;;;;6.03;52.56;96680.75;2092333;28;20193;-63
2023/03/15 10:50:45;;;;;;;2.92;0.90;;;;;;;5.87;51.86;96682.88;2090938;28;20201;-63
2023/03/15 10:51:47;;;;;;;3.05;1.10;;;;;;;5.81;51.93;96668.31;2082176;28;20637;-63
2023/03/15 10:52:49;;;;;;;2.38;0.85;;;;;;;5.86;50.69;96684.59;2077598;28;20201;-63
2023/03/15 10:54:00;;;;;;;7.05;1.02;;;;;;;5.80;50.34;96682.19;2085129;28;20224;-62
2023/03/15 10:55:10;;;;;;;10.18;1.10;;;;;;;5.39;49.85;96671.09;2091597;28;20229;-63
2023/03/15 10:56:24;;;;;;;4.03;1.00;;;;;;;5.37;51.03;96676.31;2090258;28;20250;-63
2023/03/15 10:57:32;;;;;;;3.33;0.98;;;;;;;5.14;51.42;96673.38;2091808;28;20841;-63
2023/03/15 10:58:46;;;;;;;2.38;0.80;;;;;;;5.06;51.55;96684.75;2083339;28;20317;-62
2023/03/15 11:00:16;;;;;;;3.83;0.88;;;;;;;5.05;51.95;96682.22;2081707;28;20199;-62
2023/03/15 11:01:27;;;;;;;5.30;1.17;;;;;;;4.96;51.93;96679.84;2083449;28;20211;-62
2023/03/15 11:02:30;;;;;;;9.35;1.38;;;;;;;4.84;51.93;96676.63;2093314;28;20685;-62
2023/03/15 11:03:33;;;;;;;6.82;1.30;;;;;;;4.80;53.20;96680.16;2088604;28;20234;-62
2023/03/15 11:04:40;;;;;;;5.68;1.25;;;;;;;4.85;53.15;96675.75;2092193;28;20215;-62
2023/03/15 11:05:45;;;;;;;2.22;1.00;;;;;;;4.84;53.44;96675.78;2090998;28;20192;-62
2023/03/15 11:07:02;;;;;;;6.05;1.25;;;;;;;4.82;53.18;96659.44;2088863;28;20188;-62
2023/03/15 11:08:11;;;;;;;3.65;0.82;;;;;;;4.97;53.07;96676.38;2090003;28;20191;-62
2023/03/15 11:09:18;;;;;;;3.72;1.00;;;;;;;4.85;53.95;96669.69;2090222;28;20208;-63
2023/03/15 11:10:39;;;;;;;3.03;0.80;;;;;;;4.98;53.56;96676.31;2091219;28;20204;-63
2023/03/15 11:11:58;;;;;;;2.85;0.70;;;;;;;5.02;54.40;96677.13;2090792;28;20670;-62
2023/03/15 11:13:17;;;;;;;2.45;0.95;;;;;;;5.09;54.44;96683.84;2090550;28;20196;-63
2023/03/15 11:14:19;;;;;;;5.40;1.00;;;;;;;4.87;53.75;96679.13;2090994;28;20239;-62
2023/03/15 11:15:20;;;;;;;3.83;0.90;;;;;;;4.77;54.45;96669.88;2091145;28;20200;-63
2023/03/15 11:16:21;;;;;;;2.90;1.05;;;;;;;4.87;54.17;96676.53;2092317;28;20240;-62
2023/03/15 11:17:30;;;;;;;15.40;0.95;;;;;;;4.71;53.52;96672.56;2082838;28;20287;-63
2023/03/15 11:18:34;;;;;;;3.95;1.00;;;;;;;4.63;53.29;96690.84;2082297;28;20229;-63
2023/03/15 11:19:50;;;;;;;2.45;0.98;;;;;;;4.68;53.82;96680.41;2093717;28;20200;-63
2023/03/15 11:20:55;;;;;;;7.72;1.48;;;;;;;4.80;54.53;96681.88;2091380;28;20211;-62
2023/03/15 11:21:59;;;;;;;10.40;1.00;;;;;;;4.72;54.05;96680.34;2091386;28;20255;-63
2023/03/15 11:23:14;;;;;;;1.83;0.70;;;;;;;4.70;54.56;96687.25;2091179;28;20232;-62
2023/03/15 11:24:23;;;;;;;11.82;0.90;;;;;;;4.56;53.88;96682.38;2093925;28;20566;-62
2023/03/15 11:25:32;;;;;;;3.97;0.80;;;;;;;4.44;54.11;96682.59;2092644;28;20204;-63
2023/03/15 11:26:36;;;;;;;3.78;1.00;;;;;;;4.46;54.61;96687.78;2091578;28;20820;-62
2023/03/15 11:27:40;;;;;;;2.42;0.75;;;;;;;4.52;54.59;96679.88;2092188;28;20199;-62
2023/03/15 11:28:46;;;;;;;2.28;0.80;;;;;;;4.54;54.92;96683.28;2089053;28;21144;-63
2023/03/15 11:29:53;;;;;;;3.33;0.95;;;;;;;4.57;55.42;96672.88;2091358;28;20219;-62
2023/03/15 11:30:59;;;;;;;5.28;1.17;;;;;;;4.66;55.74;96687.34;2091351;28;20753;-63
2023/03/15 11:32:12;;;;;;;3.45;0.98;;;;;;;4.62;55.79;96696.94;2088654;28;20228;-62
2023/03/15 11:33:56;;;;;;;3.83;0.95;;;;;;;4.80;55.39;96681.88;2091448;28;20196;-64
2023/03/15 12:50:34;;;;;;;4.32;1.20;;;;;;;4.28;73.06;96713.09;2090425;28;20591;-63
2023/03/15 12:51:52;;;;;;;7.07;1.30;;;;;;;4.76;71.74;96700.94;2090067;28;20192;-63
2023/03/15 12:52:59;;;;;;;8.35;1.27;;;;;;;5.15;70.88;96698.41;2090821;28;20287;-63
2023/03/15 12:54:03;;;;;;;4.80;1.02;;;;;;;5.18;69.56;96700.91;2078811;28;20235;-63
2023/03/15 12:55:17;;;;;;;5.50;1.25;;;;;;;5.36;69.51;96703.09;2078097;28;20204;-63
2023/03/15 12:56:42;;;;;;;8.10;1.27;;;;;;;5.37;69.04;96703.94;2076557;28;20208;-64
2023/03/15 13:56:54;;;;;;;4.93;1.90;;;;;;;2.15;88.74;96723.88;2102029;27;20544;-62
2023/03/15 13:57:59;;;;;;;7.80;2.10;;;;;;;2.31;89.63;96715.09;2094655;28;20250;-63
2023/03/15 13:59:03;;;;;;;7.90;1.90;;;;;;;2.43;89.45;96714.94;2086895;28;20212;-62
2023/03/15 14:00:10;;;;;;;6.72;2.10;;;;;;;2.60;88.44;96713.91;2089875;28;20211;-63
2023/03/15 14:01:14;;;;;;;9.18;2.47;;;;;;;2.79;88.25;96714.53;2087598;28;20207;-63
2023/03/15 14:02:24;;;;;;;7.80;2.20;;;;;;;2.91;87.57;96706.63;2078407;28;20370;-63
2023/03/15 14:03:26;;;;;;;3.85;2.10;;;;;;;3.05;84.89;96703.88;2076028;28;20676;-60
2023/03/15 14:04:30;;;;;;;5.63;1.30;;;;;;;3.17;84.52;96702.00;2073383;28;20233;-60
2023/03/15 14:05:41;;;;;;;3.08;1.77;;;;;;;3.72;83.23;96706.31;2074204;28;20206;-60
2023/03/15 14:06:45;;;;;;;6.05;2.00;;;;;;;4.07;81.94;96707.41;2073380;28;20596;-61
2023/03/15 14:07:50;;;;;;;5.70;2.40;;;;;;;4.02;82.10;96701.47;2074133;28;20217;-60
2023/03/15 14:08:55;;;;;;;7.18;1.95;;;;;;;3.74;82.69;96696.78;2072493;28;20230;-59
2023/03/15 14:10:21;;;;;;;57.63;26.00;;;;;;;3.67;81.97;96699.50;2076206;28;20559;-60
2023/03/15 14:11:23;;;;;;;5.85;2.80;;;;;;;4.12;81.19;96699.59;2074383;28;20217;-61
2023/03/15 14:12:29;;;;;;;4.32;2.10;;;;;;;4.03;79.92;96695.44;2072502;28;20213;-61
2023/03/15 14:13:47;;;;;;;6.30;2.30;;;;;;;4.02;80.72;96698.88;2075818;28;20222;-60
2023/03/15 14:14:52;;;;;;;2.95;1.80;;;;;;;3.86;80.53;96700.03;2077902;28;20254;-60
2023/03/15 14:16:06;;;;;;;4.95;1.35;;;;;;;3.99;80.59;96695.53;2079905;28;20197;-60
2023/03/15 14:17:35;;;;;;;7.32;1.70;;;;;;;3.80;79.79;96692.41;2079196;28;20196;-61
2023/03/15 14:18:39;;;;;;;5.63;2.15;;;;;;;3.74;81.38;96689.03;2077518;28;20224;-61
2023/03/15 14:19:53;;;;;;;4.55;1.75;;;;;;;3.71;81.38;96704.59;2080225;28;20584;-61
2023/03/15 14:21:00;;;;;;;3.58;1.70;;;;;;;3.95;81.08;96706.78;2080281;28;20204;-61
2023/03/15 14:22:12;;;;;;;8.60;1.63;;;;;;;4.06;80.35;96697.97;2082003;28;20235;-61
2023/03/15 14:23:17;;;;;;;2.08;1.10;;;;;;;4.09;78.32;96697.06;2079691;28;20201;-61
2023/03/15 14:24:27;;;;;;;7.60;1.23;;;;;;;4.08;77.42;96688.44;2076135;28;20656;-61
2023/03/15 14:25:34;;;;;;;6.13;1.98;;;;;;;4.07;78.45;96698.81;2078951;28;20235;-61
2023/03/15 14:26:36;;;;;;;2.83;1.20;;;;;;;3.88;77.52;96693.13;2080602;28;20193;-61
2023/03/15 14:27:38;;;;;;;2.65;1.40;;;;;;;3.82;77.99;96698.38;2078472;28;20209;-61
2023/03/15 14:28:40;;;;;;;5.13;1.70;;;;;;;3.78;79.08;96684.66;2079145;28;20224;-61
2023/03/15 14:29:52;;;;;;;7.80;1.75;;;;;;;3.82;78.69;96698.38;2077549;28;20196;-61
2023/03/15 14:30:56;;;;;;;4.00;1.42;;;;;;;3.81;79.52;96702.72;2075870;28;20649;-61
2023/03/15 14:32:01;;;;;;;9.40;1.92;;;;;;;3.71;80.12;96675.34;2079436;28;20835;-61
2023/03/15 14:33:07;;;;;;;6.80;1.98;;;;;;;3.76;80.13;96717.44;2083658;28;20652;-61
2023/03/15 14:34:32;;;;;;;3.80;1.50;;;;;;;3.67;80.14;96708.13;2086250;28;20239;-61
2023/03/15 14:35:33;;;;;;;3.72;1.50;;;;;;;3.71;81.47;96708.91;2088164;28;20196;-62
2023/03/15 15:01:57;;;;;;;2.03;1.00;;;;;;;2.24;92.59;96742.66;2085353;28;20552;-61
2023/03/15 15:02:59;;;;;;;1.88;1.27;;;;;;;2.65;92.98;96737.91;2075870;28;20197;-62
